sensor_id;sensor_type;location;lat;lon;timestamp;P1;durP1;ratioP1;P2;durP2;ratioP2
55007;SDS011;40902;45.116;21.296;2023-03-21T00:00:41;46.42;;;28.92;;
55007;SDS011;40902;45.116;21.296;2023-03-21T00:03:07;46.25;;;29.05;;
55007;SDS011;40902;45.116;21.296;2023-03-21T00:05:33;45.55;;;28.75;;
55007;SDS011;40902;45.116;21.296;2023-03-21T00:08:03;36.72;;;23.80;;
55007;SDS011;40902;45.116;21.296;2023-03-21T00:10:29;30.63;;;20.63;;
55007;SDS011;40902;45.116;21.296;2023-03-21T00:12:54;43.60;;;27.17;;
55007;SDS011;40902;45.116;21.296;2023-03-21T00:15:22;36.95;;;25.50;;
55007;SDS011;40902;45.116;21.296;2023-03-21T00:17:50;33.25;;;22.85;;
55007;SDS011;40902;45.116;21.296;2023-03-21T00:20:22;29.50;;;19.00;;
55007;SDS011;40902;45.116;21.296;2023-03-21T00:22:48;29.17;;;20.77;;
55007;SDS011;40902;45.116;21.296;2023-03-21T00:25:14;32.22;;;20.92;;
55007;SDS011;40902;45.116;21.296;2023-03-21T00:27:40;24.50;;;18.08;;
55007;SDS011;40902;45.116;21.296;2023-03-21T00:30:05;25.30;;;17.73;;
55007;SDS011;40902;45.116;21.296;2023-03-21T00:32:31;24.60;;;17.25;;
55007;SDS011;40902;45.116;21.296;2023-03-21T00:34:57;22.73;;;16.95;;
55007;SDS011;40902;45.116;21.296;2023-03-21T00:37:23;23.60;;;17.13;;
55007;SDS011;40902;45.116;21.296;2023-03-21T00:39:48;23.88;;;16.33;;
55007;SDS011;40902;45.116;21.296;2023-03-21T00:42:15;25.92;;;16.65;;
55007;SDS011;40902;45.116;21.296;2023-03-21T00:44:40;23.23;;;15.07;;
55007;SDS011;40902;45.116;21.296;2023-03-21T00:47:06;21.83;;;16.00;;
55007;SDS011;40902;45.116;21.296;2023-03-21T00:49:32;24.30;;;16.40;;
55007;SDS011;40902;45.116;21.296;2023-03-21T00:51:58;20.27;;;15.95;;
55007;SDS011;40902;45.116;21.296;2023-03-21T00:54:25;24.77;;;17.05;;
55007;SDS011;40902;45.116;21.296;2023-03-21T00:56:51;23.77;;;16.60;;
55007;SDS011;40902;45.116;21.296;2023-03-21T00:59:16;22.23;;;16.40;;
55007;SDS011;40902;45.116;21.296;2023-03-21T01:01:42;24.77;;;17.23;;
55007;SDS011;40902;45.116;21.296;2023-03-21T01:04:11;23.60;;;16.50;;
55007;SDS011;40902;45.116;21.296;2023-03-21T01:06:39;22.25;;;16.98;;
55007;SDS011;40902;45.116;21.296;2023-03-21T01:09:06;25.23;;;16.05;;
55007;SDS011;40902;45.116;21.296;2023-03-21T01:11:45;27.92;;;17.33;;
55007;SDS011;40902;45.116;21.296;2023-03-21T01:14:11;23.95;;;17.90;;
55007;SDS011;40902;45.116;21.296;2023-03-21T01:16:38;25.52;;;17.42;;
55007;SDS011;40902;45.116;21.296;2023-03-21T01:19:05;25.77;;;17.90;;
55007;SDS011;40902;45.116;21.296;2023-03-21T01:21:32;24.63;;;17.10;;
55007;SDS011;40902;45.116;21.296;2023-03-21T01:23:59;23.23;;;16.60;;
55007;SDS011;40902;45.116;21.296;2023-03-21T01:26:25;25.80;;;18.45;;
55007;SDS011;40902;45.116;21.296;2023-03-21T01:28:51;24.15;;;17.17;;
55007;SDS011;40902;45.116;21.296;2023-03-21T01:31:17;26.13;;;17.92;;
55007;SDS011;40902;45.116;21.296;2023-03-21T01:33:43;27.10;;;18.52;;
55007;SDS011;40902;45.116;21.296;2023-03-21T01:36:20;28.88;;;18.63;;
55007;SDS011;40902;45.116;21.296;2023-03-21T01:38:47;26.55;;;18.13;;
55007;SDS011;40902;45.116;21.296;2023-03-21T01:41:36;25.67;;;19.63;;
55007;SDS011;40902;45.116;21.296;2023-03-21T01:44:04;25.48;;;18.13;;
55007;SDS011;40902;45.116;21.296;2023-03-21T01:46:35;28.45;;;19.98;;
55007;SDS011;40902;45.116;21.296;2023-03-21T01:51:37;27.25;;;18.98;;
55007;SDS011;40902;45.116;21.296;2023-03-21T01:54:06;25.63;;;18.27;;
55007;SDS011;40902;45.116;21.296;2023-03-21T01:56:36;27.98;;;18.83;;
55007;SDS011;40902;45.116;21.296;2023-03-21T01:59:14;25.63;;;18.52;;
55007;SDS011;40902;45.116;21.296;2023-03-21T02:01:45;25.48;;;18.83;;
55007;SDS011;40902;45.116;21.296;2023-03-21T02:04:13;28.15;;;18.83;;
55007;SDS011;40902;45.116;21.296;2023-03-21T02:06:59;24.50;;;18.45;;
55007;SDS011;40902;45.116;21.296;2023-03-21T02:09:39;29.08;;;19.35;;
55007;SDS011;40902;45.116;21.296;2023-03-21T02:12:08;27.45;;;20.80;;
55007;SDS011;40902;45.116;21.296;2023-03-21T02:14:35;28.02;;;19.30;;
55007;SDS011;40902;45.116;21.296;2023-03-21T02:27:33;27.20;;;20.02;;
55007;SDS011;40902;45.116;21.296;2023-03-21T02:41:50;26.02;;;20.52;;
55007;SDS011;40902;45.116;21.296;2023-03-21T02:44:38;26.98;;;20.02;;
55007;SDS011;40902;45.116;21.296;2023-03-21T02:47:47;29.88;;;21.83;;
55007;SDS011;40902;45.116;21.296;2023-03-21T02:52:51;35.28;;;22.92;;
55007;SDS011;40902;45.116;21.296;2023-03-21T02:55:20;29.90;;;20.13;;
55007;SDS011;40902;45.116;21.296;2023-03-21T02:57:51;28.58;;;20.52;;
55007;SDS011;40902;45.116;21.296;2023-03-21T03:00:24;27.77;;;20.85;;
55007;SDS011;40902;45.116;21.296;2023-03-21T03:02:51;28.63;;;20.63;;
55007;SDS011;40902;45.116;21.296;2023-03-21T03:05:22;28.50;;;20.80;;
55007;SDS011;40902;45.116;21.296;2023-03-21T03:10:48;28.02;;;21.48;;
55007;SDS011;40902;45.116;21.296;2023-03-21T03:16:27;26.80;;;20.30;;
55007;SDS011;40902;45.116;21.296;2023-03-21T03:19:01;27.05;;;21.40;;
55007;SDS011;40902;45.116;21.296;2023-03-21T03:29:02;29.02;;;21.92;;
55007;SDS011;40902;45.116;21.296;2023-03-21T03:31:32;27.45;;;21.00;;
55007;SDS011;40902;45.116;21.296;2023-03-21T03:34:21;26.30;;;19.50;;
55007;SDS011;40902;45.116;21.296;2023-03-21T03:36:51;26.20;;;20.23;;
55007;SDS011;40902;45.116;21.296;2023-03-21T03:39:24;27.55;;;20.63;;
55007;SDS011;40902;45.116;21.296;2023-03-21T03:41:58;28.35;;;20.95;;
55007;SDS011;40902;45.116;21.296;2023-03-21T03:44:29;28.25;;;21.05;;
55007;SDS011;40902;45.116;21.296;2023-03-21T03:49:28;28.63;;;20.33;;
55007;SDS011;40902;45.116;21.296;2023-03-21T03:52:03;28.27;;;21.52;;
55007;SDS011;40902;45.116;21.296;2023-03-21T03:54:36;31.55;;;22.17;;
55007;SDS011;40902;45.116;21.296;2023-03-21T03:57:10;34.85;;;24.70;;
55007;SDS011;40902;45.116;21.296;2023-03-21T03:59:38;33.22;;;23.95;;
55007;SDS011;40902;45.116;21.296;2023-03-21T04:02:06;26.23;;;21.23;;
55007;SDS011;40902;45.116;21.296;2023-03-21T04:04:32;38.88;;;25.23;;
55007;SDS011;40902;45.116;21.296;2023-03-21T04:06:59;34.05;;;23.42;;
55007;SDS011;40902;45.116;21.296;2023-03-21T04:09:27;50.85;;;31.33;;
55007;SDS011;40902;45.116;21.296;2023-03-21T04:11:53;42.13;;;27.08;;
55007;SDS011;40902;45.116;21.296;2023-03-21T04:14:19;36.50;;;25.05;;
55007;SDS011;40902;45.116;21.296;2023-03-21T04:16:44;31.10;;;24.40;;
55007;SDS011;40902;45.116;21.296;2023-03-21T04:19:10;33.58;;;23.63;;
55007;SDS011;40902;45.116;21.296;2023-03-21T04:21:36;35.63;;;23.52;;
55007;SDS011;40902;45.116;21.296;2023-03-21T04:24:02;32.15;;;24.33;;
55007;SDS011;40902;45.116;21.296;2023-03-21T04:26:28;32.63;;;23.50;;
55007;SDS011;40902;45.116;21.296;2023-03-21T04:28:57;31.77;;;23.23;;
55007;SDS011;40902;45.116;21.296;2023-03-21T04:31:27;32.05;;;24.45;;
55007;SDS011;40902;45.116;21.296;2023-03-21T04:33:55;34.03;;;23.20;;
55007;SDS011;40902;45.116;21.296;2023-03-21T04:36:22;31.42;;;22.50;;
55007;SDS011;40902;45.116;21.296;2023-03-21T04:38:54;30.08;;;22.40;;
55007;SDS011;40902;45.116;21.296;2023-03-21T04:41:28;28.90;;;21.70;;
55007;SDS011;40902;45.116;21.296;2023-03-21T04:43:54;26.67;;;20.13;;
55007;SDS011;40902;45.116;21.296;2023-03-21T04:46:20;30.08;;;21.85;;
55007;SDS011;40902;45.116;21.296;2023-03-21T04:48:46;30.30;;;22.65;;
55007;SDS011;40902;45.116;21.296;2023-03-21T04:51:13;35.88;;;20.65;;
55007;SDS011;40902;45.116;21.296;2023-03-21T04:53:39;31.27;;;22.17;;
55007;SDS011;40902;45.116;21.296;2023-03-21T04:56:09;30.63;;;20.92;;
55007;SDS011;40902;45.116;21.296;2023-03-21T04:58:35;26.15;;;20.77;;
55007;SDS011;40902;45.116;21.296;2023-03-21T05:01:01;27.98;;;20.80;;
55007;SDS011;40902;45.116;21.296;2023-03-21T05:03:29;29.20;;;21.05;;
55007;SDS011;40902;45.116;21.296;2023-03-21T05:05:58;29.35;;;20.33;;
55007;SDS011;40902;45.116;21.296;2023-03-21T05:08:25;26.92;;;21.00;;
55007;SDS011;40902;45.116;21.296;2023-03-21T05:10:51;28.80;;;21.38;;
55007;SDS011;40902;45.116;21.296;2023-03-21T05:13:16;33.63;;;23.40;;
55007;SDS011;40902;45.116;21.296;2023-03-21T05:15:42;33.20;;;21.08;;
55007;SDS011;40902;45.116;21.296;2023-03-21T05:18:08;31.92;;;22.08;;
55007;SDS011;40902;45.116;21.296;2023-03-21T05:20:37;29.83;;;19.88;;
55007;SDS011;40902;45.116;21.296;2023-03-21T05:23:10;28.73;;;20.13;;
55007;SDS011;40902;45.116;21.296;2023-03-21T05:25:37;29.15;;;20.30;;
55007;SDS011;40902;45.116;21.296;2023-03-21T05:28:04;28.25;;;19.75;;
55007;SDS011;40902;45.116;21.296;2023-03-21T05:30:30;28.15;;;20.40;;
55007;SDS011;40902;45.116;21.296;2023-03-21T05:32:56;26.15;;;19.65;;
55007;SDS011;40902;45.116;21.296;2023-03-21T05:35:22;27.23;;;20.58;;
55007;SDS011;40902;45.116;21.296;2023-03-21T05:37:47;28.20;;;19.58;;
55007;SDS011;40902;45.116;21.296;2023-03-21T05:40:13;27.73;;;19.50;;
55007;SDS011;40902;45.116;21.296;2023-03-21T05:42:39;30.60;;;20.08;;
55007;SDS011;40902;45.116;21.296;2023-03-21T05:45:05;31.60;;;20.92;;
55007;SDS011;40902;45.116;21.296;2023-03-21T05:47:31;28.30;;;19.70;;
55007;SDS011;40902;45.116;21.296;2023-03-21T05:49:57;26.95;;;20.35;;
55007;SDS011;40902;45.116;21.296;2023-03-21T05:52:22;26.35;;;18.77;;
55007;SDS011;40902;45.116;21.296;2023-03-21T05:54:48;29.00;;;19.80;;
55007;SDS011;40902;45.116;21.296;2023-03-21T05:57:14;28.27;;;19.83;;
55007;SDS011;40902;45.116;21.296;2023-03-21T05:59:43;28.52;;;20.02;;
55007;SDS011;40902;45.116;21.296;2023-03-21T06:02:09;27.00;;;20.33;;
55007;SDS011;40902;45.116;21.296;2023-03-21T06:04:35;30.00;;;21.30;;
55007;SDS011;40902;45.116;21.296;2023-03-21T06:07:00;32.13;;;19.90;;
55007;SDS011;40902;45.116;21.296;2023-03-21T06:09:26;29.15;;;18.55;;
55007;SDS011;40902;45.116;21.296;2023-03-21T06:11:52;24.80;;;19.52;;
55007;SDS011;40902;45.116;21.296;2023-03-21T06:14:20;25.02;;;19.20;;
55007;SDS011;40902;45.116;21.296;2023-03-21T06:16:47;26.77;;;18.88;;
55007;SDS011;40902;45.116;21.296;2023-03-21T06:19:12;30.90;;;20.77;;
55007;SDS011;40902;45.116;21.296;2023-03-21T06:21:38;26.27;;;20.15;;
55007;SDS011;40902;45.116;21.296;2023-03-21T06:24:04;30.40;;;20.55;;
55007;SDS011;40902;45.116;21.296;2023-03-21T06:26:30;27.33;;;20.23;;
55007;SDS011;40902;45.116;21.296;2023-03-21T06:28:56;26.40;;;20.33;;
55007;SDS011;40902;45.116;21.296;2023-03-21T06:31:22;32.88;;;22.90;;
55007;SDS011;40902;45.116;21.296;2023-03-21T06:33:49;30.10;;;21.75;;
55007;SDS011;40902;45.116;21.296;2023-03-21T06:36:16;31.08;;;22.67;;
55007;SDS011;40902;45.116;21.296;2023-03-21T06:38:42;29.85;;;23.00;;
55007;SDS011;40902;45.116;21.296;2023-03-21T06:41:07;28.25;;;20.67;;
55007;SDS011;40902;45.116;21.296;2023-03-21T06:43:33;29.00;;;21.35;;
55007;SDS011;40902;45.116;21.296;2023-03-21T06:45:59;28.33;;;21.75;;
55007;SDS011;40902;45.116;21.296;2023-03-21T06:48:25;30.25;;;21.15;;
55007;SDS011;40902;45.116;21.296;2023-03-21T06:50:52;30.90;;;20.42;;
55007;SDS011;40902;45.116;21.296;2023-03-21T06:53:18;27.63;;;21.60;;
55007;SDS011;40902;45.116;21.296;2023-03-21T06:55:54;31.15;;;21.65;;
55007;SDS011;40902;45.116;21.296;2023-03-21T06:58:21;31.10;;;20.70;;
55007;SDS011;40902;45.116;21.296;2023-03-21T07:00:49;27.58;;;20.90;;
55007;SDS011;40902;45.116;21.296;2023-03-21T07:03:14;31.45;;;21.85;;
55007;SDS011;40902;45.116;21.296;2023-03-21T07:05:41;26.58;;;21.15;;
55007;SDS011;40902;45.116;21.296;2023-03-21T07:08:07;30.75;;;23.02;;
55007;SDS011;40902;45.116;21.296;2023-03-21T07:10:38;31.10;;;21.98;;
55007;SDS011;40902;45.116;21.296;2023-03-21T07:13:04;30.35;;;22.15;;
55007;SDS011;40902;45.116;21.296;2023-03-21T07:15:30;30.02;;;21.38;;
55007;SDS011;40902;45.116;21.296;2023-03-21T07:17:58;32.80;;;21.63;;
55007;SDS011;40902;45.116;21.296;2023-03-21T07:20:24;27.40;;;21.50;;
55007;SDS011;40902;45.116;21.296;2023-03-21T07:22:50;29.38;;;21.80;;
55007;SDS011;40902;45.116;21.296;2023-03-21T07:25:16;32.10;;;21.75;;
55007;SDS011;40902;45.116;21.296;2023-03-21T07:27:44;29.70;;;21.70;;
55007;SDS011;40902;45.116;21.296;2023-03-21T07:30:10;28.63;;;20.73;;
55007;SDS011;40902;45.116;21.296;2023-03-21T07:32:37;27.95;;;20.55;;
55007;SDS011;40902;45.116;21.296;2023-03-21T07:35:03;37.00;;;26.00;;
55007;SDS011;40902;45.116;21.296;2023-03-21T07:37:29;30.92;;;21.85;;
55007;SDS011;40902;45.116;21.296;2023-03-21T07:39:55;31.42;;;22.48;;
55007;SDS011;40902;45.116;21.296;2023-03-21T07:42:21;31.35;;;22.80;;
55007;SDS011;40902;45.116;21.296;2023-03-21T07:44:46;29.75;;;21.45;;
55007;SDS011;40902;45.116;21.296;2023-03-21T07:47:12;31.40;;;21.92;;
55007;SDS011;40902;45.116;21.296;2023-03-21T07:49:38;27.27;;;20.42;;
55007;SDS011;40902;45.116;21.296;2023-03-21T07:52:04;29.50;;;22.10;;
55007;SDS011;40902;45.116;21.296;2023-03-21T07:54:31;29.27;;;22.27;;
55007;SDS011;40902;45.116;21.296;2023-03-21T07:56:57;29.00;;;20.73;;
55007;SDS011;40902;45.116;21.296;2023-03-21T07:59:26;28.77;;;21.05;;
55007;SDS011;40902;45.116;21.296;2023-03-21T08:01:53;30.20;;;22.40;;
55007;SDS011;40902;45.116;21.296;2023-03-21T08:04:18;27.73;;;20.90;;
55007;SDS011;40902;45.116;21.296;2023-03-21T08:06:45;29.45;;;21.45;;
55007;SDS011;40902;45.116;21.296;2023-03-21T08:09:10;31.40;;;22.05;;
55007;SDS011;40902;45.116;21.296;2023-03-21T08:11:36;28.38;;;20.88;;
55007;SDS011;40902;45.116;21.296;2023-03-21T08:14:02;30.35;;;22.50;;
55007;SDS011;40902;45.116;21.296;2023-03-21T08:16:28;28.17;;;22.38;;
55007;SDS011;40902;45.116;21.296;2023-03-21T08:18:53;29.08;;;22.05;;
55007;SDS011;40902;45.116;21.296;2023-03-21T08:21:19;29.83;;;22.05;;
55007;SDS011;40902;45.116;21.296;2023-03-21T08:23:45;28.58;;;22.13;;
55007;SDS011;40902;45.116;21.296;2023-03-21T08:26:10;28.13;;;21.45;;
55007;SDS011;40902;45.116;21.296;2023-03-21T08:28:42;27.52;;;21.95;;
55007;SDS011;40902;45.116;21.296;2023-03-21T08:31:09;24.80;;;19.75;;
55007;SDS011;40902;45.116;21.296;2023-03-21T08:33:35;27.42;;;20.42;;
55007;SDS011;40902;45.116;21.296;2023-03-21T08:36:02;26.40;;;20.55;;
55007;SDS011;40902;45.116;21.296;2023-03-21T08:38:28;27.80;;;20.75;;
55007;SDS011;40902;45.116;21.296;2023-03-21T08:40:57;27.90;;;21.17;;
55007;SDS011;40902;45.116;21.296;2023-03-21T08:43:26;27.85;;;20.88;;
55007;SDS011;40902;45.116;21.296;2023-03-21T08:45:52;29.33;;;22.85;;
55007;SDS011;40902;45.116;21.296;2023-03-21T08:48:18;31.58;;;24.23;;
55007;SDS011;40902;45.116;21.296;2023-03-21T08:50:44;27.45;;;22.55;;
55007;SDS011;40902;45.116;21.296;2023-03-21T08:53:10;28.92;;;22.60;;
55007;SDS011;40902;45.116;21.296;2023-03-21T08:55:36;28.55;;;20.52;;
55007;SDS011;40902;45.116;21.296;2023-03-21T08:58:02;29.40;;;22.08;;
55007;SDS011;40902;45.116;21.296;2023-03-21T09:00:28;28.73;;;21.00;;
55007;SDS011;40902;45.116;21.296;2023-03-21T09:02:53;25.05;;;20.35;;
55007;SDS011;40902;45.116;21.296;2023-03-21T09:05:20;28.10;;;20.95;;
55007;SDS011;40902;45.116;21.296;2023-03-21T09:07:46;27.65;;;19.90;;
55007;SDS011;40902;45.116;21.296;2023-03-21T09:10:16;24.85;;;20.30;;
55007;SDS011;40902;45.116;21.296;2023-03-21T09:12:44;24.75;;;20.15;;
55007;SDS011;40902;45.116;21.296;2023-03-21T09:15:10;29.40;;;21.33;;
55007;SDS011;40902;45.116;21.296;2023-03-21T09:17:36;27.15;;;20.20;;
55007;SDS011;40902;45.116;21.296;2023-03-21T09:20:14;29.95;;;20.50;;
55007;SDS011;40902;45.116;21.296;2023-03-21T09:22:48;26.98;;;20.10;;
55007;SDS011;40902;45.116;21.296;2023-03-21T09:25:16;28.17;;;21.35;;
55007;SDS011;40902;45.116;21.296;2023-03-21T09:27:43;27.55;;;20.67;;
55007;SDS011;40902;45.116;21.296;2023-03-21T09:30:10;25.63;;;20.65;;
55007;SDS011;40902;45.116;21.296;2023-03-21T09:32:36;25.85;;;19.95;;
55007;SDS011;40902;45.116;21.296;2023-03-21T09:35:02;22.92;;;20.15;;
55007;SDS011;40902;45.116;21.296;2023-03-21T09:37:29;26.27;;;20.92;;
55007;SDS011;40902;45.116;21.296;2023-03-21T09:39:56;29.48;;;21.42;;
55007;SDS011;40902;45.116;21.296;2023-03-21T09:42:38;27.40;;;21.90;;
55007;SDS011;40902;45.116;21.296;2023-03-21T09:47:40;22.88;;;19.25;;
55007;SDS011;40902;45.116;21.296;2023-03-21T09:50:15;24.90;;;17.85;;
55007;SDS011;40902;45.116;21.296;2023-03-21T09:52:45;25.85;;;20.05;;
55007;SDS011;40902;45.116;21.296;2023-03-21T09:55:16;27.90;;;20.13;;
55007;SDS011;40902;45.116;21.296;2023-03-21T09:57:43;26.40;;;20.10;;
55007;SDS011;40902;45.116;21.296;2023-03-21T10:00:20;24.65;;;20.40;;
55007;SDS011;40902;45.116;21.296;2023-03-21T10:02:50;26.42;;;19.95;;
55007;SDS011;40902;45.116;21.296;2023-03-21T10:05:24;22.92;;;18.05;;
55007;SDS011;40902;45.116;21.296;2023-03-21T10:10:36;25.20;;;19.95;;
55007;SDS011;40902;45.116;21.296;2023-03-21T10:13:16;25.25;;;19.92;;
55007;SDS011;40902;45.116;21.296;2023-03-21T10:15:45;25.00;;;18.80;;
55007;SDS011;40902;45.116;21.296;2023-03-21T10:18:12;24.48;;;19.50;;
55007;SDS011;40902;45.116;21.296;2023-03-21T10:20:41;24.52;;;17.85;;
55007;SDS011;40902;45.116;21.296;2023-03-21T10:23:10;27.30;;;18.10;;
55007;SDS011;40902;45.116;21.296;2023-03-21T10:25:47;24.33;;;18.85;;
55007;SDS011;40902;45.116;21.296;2023-03-21T10:28:18;30.58;;;19.58;;
55007;SDS011;40902;45.116;21.296;2023-03-21T10:30:52;24.30;;;18.33;;
55007;SDS011;40902;45.116;21.296;2023-03-21T10:33:22;24.92;;;18.92;;
55007;SDS011;40902;45.116;21.296;2023-03-21T10:35:54;24.45;;;18.38;;
55007;SDS011;40902;45.116;21.296;2023-03-21T10:38:22;27.70;;;19.52;;
55007;SDS011;40902;45.116;21.296;2023-03-21T10:40:48;22.67;;;16.67;;
55007;SDS011;40902;45.116;21.296;2023-03-21T10:45:45;22.83;;;17.45;;
55007;SDS011;40902;45.116;21.296;2023-03-21T10:48:11;24.35;;;18.33;;
55007;SDS011;40902;45.116;21.296;2023-03-21T10:50:37;22.55;;;16.35;;
55007;SDS011;40902;45.116;21.296;2023-03-21T10:53:05;24.77;;;17.75;;
55007;SDS011;40902;45.116;21.296;2023-03-21T10:55:39;22.88;;;17.05;;
55007;SDS011;40902;45.116;21.296;2023-03-21T10:58:07;23.15;;;17.05;;
55007;SDS011;40902;45.116;21.296;2023-03-21T11:00:37;19.70;;;16.48;;
55007;SDS011;40902;45.116;21.296;2023-03-21T11:03:05;22.67;;;15.80;;
55007;SDS011;40902;45.116;21.296;2023-03-21T11:05:38;19.95;;;14.98;;
55007;SDS011;40902;45.116;21.296;2023-03-21T11:08:06;18.00;;;14.43;;
55007;SDS011;40902;45.116;21.296;2023-03-21T11:13:26;24.83;;;17.05;;
55007;SDS011;40902;45.116;21.296;2023-03-21T11:16:09;24.27;;;15.48;;
55007;SDS011;40902;45.116;21.296;2023-03-21T11:18:43;22.05;;;15.48;;
55007;SDS011;40902;45.116;21.296;2023-03-21T11:21:13;20.90;;;15.57;;
55007;SDS011;40902;45.116;21.296;2023-03-21T11:23:41;20.58;;;15.40;;
55007;SDS011;40902;45.116;21.296;2023-03-21T11:26:18;24.83;;;15.68;;
55007;SDS011;40902;45.116;21.296;2023-03-21T11:28:50;19.70;;;14.45;;
55007;SDS011;40902;45.116;21.296;2023-03-21T11:31:17;24.75;;;15.68;;
55007;SDS011;40902;45.116;21.296;2023-03-21T11:33:46;18.63;;;14.48;;
55007;SDS011;40902;45.116;21.296;2023-03-21T11:38:59;21.48;;;15.07;;
55007;SDS011;40902;45.116;21.296;2023-03-21T11:41:38;21.10;;;15.10;;
55007;SDS011;40902;45.116;21.296;2023-03-21T11:44:05;19.30;;;14.82;;
55007;SDS011;40902;45.116;21.296;2023-03-21T11:46:48;21.98;;;13.57;;
55007;SDS011;40902;45.116;21.296;2023-03-21T11:49:14;17.13;;;14.52;;
55007;SDS011;40902;45.116;21.296;2023-03-21T11:51:40;19.08;;;14.68;;
55007;SDS011;40902;45.116;21.296;2023-03-21T12:00:06;18.05;;;12.75;;
55007;SDS011;40902;45.116;21.296;2023-03-21T12:05:52;13.95;;;11.30;;
55007;SDS011;40902;45.116;21.296;2023-03-21T12:08:31;15.65;;;11.98;;
55007;SDS011;40902;45.116;21.296;2023-03-21T12:11:28;14.68;;;11.57;;
55007;SDS011;40902;45.116;21.296;2023-03-21T12:20:01;16.67;;;12.23;;
55007;SDS011;40902;45.116;21.296;2023-03-21T12:22:50;16.15;;;11.43;;
55007;SDS011;40902;45.116;21.296;2023-03-21T12:25:28;14.77;;;11.30;;
55007;SDS011;40902;45.116;21.296;2023-03-21T12:30:48;13.45;;;10.15;;
55007;SDS011;40902;45.116;21.296;2023-03-21T12:33:20;14.93;;;10.30;;
55007;SDS011;40902;45.116;21.296;2023-03-21T12:44:22;11.65;;;7.93;;
55007;SDS011;40902;45.116;21.296;2023-03-21T12:46:54;10.95;;;8.60;;
55007;SDS011;40902;45.116;21.296;2023-03-21T12:49:35;13.20;;;10.00;;
55007;SDS011;40902;45.116;21.296;2023-03-21T12:54:40;13.88;;;9.70;;
55007;SDS011;40902;45.116;21.296;2023-03-21T12:57:17;14.30;;;10.40;;
55007;SDS011;40902;45.116;21.296;2023-03-21T13:00:18;12.48;;;9.02;;
55007;SDS011;40902;45.116;21.296;2023-03-21T13:02:59;12.48;;;9.32;;
55007;SDS011;40902;45.116;21.296;2023-03-21T13:05:29;9.77;;;8.38;;
55007;SDS011;40902;45.116;21.296;2023-03-21T13:08:26;11.70;;;8.13;;
55007;SDS011;40902;45.116;21.296;2023-03-21T13:10:57;11.18;;;8.80;;
55007;SDS011;40902;45.116;21.296;2023-03-21T13:13:29;7.63;;;5.80;;
55007;SDS011;40902;45.116;21.296;2023-03-21T13:16:22;9.15;;;6.22;;
55007;SDS011;40902;45.116;21.296;2023-03-21T13:21:36;11.20;;;8.30;;
55007;SDS011;40902;45.116;21.296;2023-03-21T13:29:51;6.93;;;5.15;;
55007;SDS011;40902;45.116;21.296;2023-03-21T13:37:33;6.28;;;5.13;;
55007;SDS011;40902;45.116;21.296;2023-03-21T13:40:00;5.25;;;3.38;;
55007;SDS011;40902;45.116;21.296;2023-03-21T13:42:33;5.25;;;3.60;;
55007;SDS011;40902;45.116;21.296;2023-03-21T13:45:00;6.75;;;4.70;;
55007;SDS011;40902;45.116;21.296;2023-03-21T13:53:09;8.85;;;4.93;;
55007;SDS011;40902;45.116;21.296;2023-03-21T13:55:40;5.57;;;4.28;;
55007;SDS011;40902;45.116;21.296;2023-03-21T14:04:25;8.98;;;5.55;;
55007;SDS011;40902;45.116;21.296;2023-03-21T14:06:57;6.50;;;5.32;;
55007;SDS011;40902;45.116;21.296;2023-03-21T14:09:34;7.53;;;5.68;;
55007;SDS011;40902;45.116;21.296;2023-03-21T14:12:03;9.50;;;7.05;;
55007;SDS011;40902;45.116;21.296;2023-03-21T14:14:36;10.23;;;5.85;;
55007;SDS011;40902;45.116;21.296;2023-03-21T14:17:13;6.70;;;5.15;;
55007;SDS011;40902;45.116;21.296;2023-03-21T14:19:56;8.20;;;4.82;;
55007;SDS011;40902;45.116;21.296;2023-03-21T14:22:25;7.38;;;5.18;;
55007;SDS011;40902;45.116;21.296;2023-03-21T14:24:57;7.60;;;5.38;;
55007;SDS011;40902;45.116;21.296;2023-03-21T14:27:34;7.88;;;5.65;;
55007;SDS011;40902;45.116;21.296;2023-03-21T14:30:03;7.97;;;5.60;;
55007;SDS011;40902;45.116;21.296;2023-03-21T14:32:29;6.95;;;5.63;;
55007;SDS011;40902;45.116;21.296;2023-03-21T14:34:56;6.68;;;5.57;;
55007;SDS011;40902;45.116;21.296;2023-03-21T14:37:26;8.15;;;5.53;;
55007;SDS011;40902;45.116;21.296;2023-03-21T14:39:57;7.43;;;5.60;;
55007;SDS011;40902;45.116;21.296;2023-03-21T14:42:24;8.82;;;6.22;;
55007;SDS011;40902;45.116;21.296;2023-03-21T14:44:51;11.50;;;6.43;;
55007;SDS011;40902;45.116;21.296;2023-03-21T14:49:44;9.50;;;6.50;;
55007;SDS011;40902;45.116;21.296;2023-03-21T14:52:10;9.55;;;6.07;;
55007;SDS011;40902;45.116;21.296;2023-03-21T14:54:40;11.02;;;6.75;;
55007;SDS011;40902;45.116;21.296;2023-03-21T14:57:10;10.70;;;6.57;;
55007;SDS011;40902;45.116;21.296;2023-03-21T14:59:38;15.00;;;7.22;;
55007;SDS011;40902;45.116;21.296;2023-03-21T15:05:09;13.02;;;7.88;;
55007;SDS011;40902;45.116;21.296;2023-03-21T15:07:41;11.25;;;6.88;;
55007;SDS011;40902;45.116;21.296;2023-03-21T15:10:16;10.30;;;6.95;;
55007;SDS011;40902;45.116;21.296;2023-03-21T15:12:58;11.23;;;7.75;;
55007;SDS011;40902;45.116;21.296;2023-03-21T15:15:26;10.70;;;6.93;;
55007;SDS011;40902;45.116;21.296;2023-03-21T15:17:54;9.38;;;6.05;;
55007;SDS011;40902;45.116;21.296;2023-03-21T15:20:25;10.43;;;6.72;;
55007;SDS011;40902;45.116;21.296;2023-03-21T15:22:54;11.90;;;6.38;;
55007;SDS011;40902;45.116;21.296;2023-03-21T15:25:41;7.47;;;5.50;;
55007;SDS011;40902;45.116;21.296;2023-03-21T15:28:10;9.65;;;6.03;;
55007;SDS011;40902;45.116;21.296;2023-03-21T15:30:38;9.68;;;7.18;;
55007;SDS011;40902;45.116;21.296;2023-03-21T15:33:14;9.13;;;6.07;;
55007;SDS011;40902;45.116;21.296;2023-03-21T15:35:41;7.40;;;4.57;;
55007;SDS011;40902;45.116;21.296;2023-03-21T15:43:39;8.55;;;5.03;;
55007;SDS011;40902;45.116;21.296;2023-03-21T15:46:11;9.48;;;6.32;;
55007;SDS011;40902;45.116;21.296;2023-03-21T15:48:37;12.93;;;5.93;;
55007;SDS011;40902;45.116;21.296;2023-03-21T15:51:05;9.82;;;6.10;;
55007;SDS011;40902;45.116;21.296;2023-03-21T15:53:32;8.27;;;6.00;;
55007;SDS011;40902;45.116;21.296;2023-03-21T15:55:59;4.82;;;3.33;;
55007;SDS011;40902;45.116;21.296;2023-03-21T15:58:32;8.50;;;5.03;;
55007;SDS011;40902;45.116;21.296;2023-03-21T16:01:01;7.00;;;4.40;;
55007;SDS011;40902;45.116;21.296;2023-03-21T16:03:41;7.00;;;3.75;;
55007;SDS011;40902;45.116;21.296;2023-03-21T16:08:36;6.93;;;2.97;;
55007;SDS011;40902;45.116;21.296;2023-03-21T16:11:07;5.30;;;3.28;;
55007;SDS011;40902;45.116;21.296;2023-03-21T16:13:34;4.20;;;2.95;;
55007;SDS011;40902;45.116;21.296;2023-03-21T16:16:00;6.05;;;3.40;;
55007;SDS011;40902;45.116;21.296;2023-03-21T16:18:26;6.63;;;4.22;;
55007;SDS011;40902;45.116;21.296;2023-03-21T16:20:53;7.05;;;3.47;;
55007;SDS011;40902;45.116;21.296;2023-03-21T16:23:21;7.00;;;3.95;;
55007;SDS011;40902;45.116;21.296;2023-03-21T16:25:47;11.95;;;7.85;;
55007;SDS011;40902;45.116;21.296;2023-03-21T16:28:19;9.23;;;7.03;;
55007;SDS011;40902;45.116;21.296;2023-03-21T16:30:45;7.13;;;5.28;;